sensor_id;sensor_type;location;lat;lon;timestamp;P1;durP1;ratioP1;P2;durP2;ratioP2
45522;SDS011;31254;51.680;5.394;2024-02-16T00:01:47;5.32;;;3.00;;
45522;SDS011;31254;51.680;5.394;2024-02-16T00:04:14;4.40;;;2.90;;
45522;SDS011;31254;51.680;5.394;2024-02-16T00:06:41;4.90;;;2.70;;
45522;SDS011;31254;51.680;5.394;2024-02-16T00:09:07;6.68;;;2.88;;
45522;SDS011;31254;51.680;5.394;2024-02-16T00:11:36;4.50;;;3.10;;
45522;SDS011;31254;51.680;5.394;2024-02-16T00:14:04;5.00;;;2.90;;
45522;SDS011;31254;51.680;5.394;2024-02-16T00:16:30;4.43;;;3.00;;
45522;SDS011;31254;51.680;5.394;2024-02-16T00:18:57;4.90;;;2.88;;
45522;SDS011;31254;51.680;5.394;2024-02-16T00:21:24;6.88;;;3.08;;
45522;SDS011;31254;51.680;5.394;2024-02-16T00:23:50;4.55;;;2.83;;
45522;SDS011;31254;51.680;5.394;2024-02-16T00:26:17;5.78;;;2.95;;
45522;SDS011;31254;51.680;5.394;2024-02-16T00:28:44;5.13;;;2.55;;
45522;SDS011;31254;51.680;5.394;2024-02-16T00:31:10;5.93;;;2.70;;
45522;SDS011;31254;51.680;5.394;2024-02-16T00:33:37;4.35;;;2.92;;
45522;SDS011;31254;51.680;5.394;2024-02-16T00:36:04;4.28;;;2.92;;
45522;SDS011;31254;51.680;5.394;2024-02-16T00:38:31;6.32;;;3.22;;
45522;SDS011;31254;51.680;5.394;2024-02-16T00:40:57;4.20;;;2.60;;
45522;SDS011;31254;51.680;5.394;2024-02-16T00:43:24;4.90;;;2.88;;
45522;SDS011;31254;51.680;5.394;2024-02-16T00:45:51;5.32;;;2.50;;
45522;SDS011;31254;51.680;5.394;2024-02-16T00:48:17;5.00;;;2.60;;
45522;SDS011;31254;51.680;5.394;2024-02-16T00:50:44;5.57;;;2.83;;
45522;SDS011;31254;51.680;5.394;2024-02-16T00:53:11;4.65;;;2.50;;
45522;SDS011;31254;51.680;5.394;2024-02-16T00:55:37;4.28;;;2.40;;
45522;SDS011;31254;51.680;5.394;2024-02-16T00:58:04;5.53;;;2.72;;
45522;SDS011;31254;51.680;5.394;2024-02-16T01:00:31;4.45;;;2.80;;
45522;SDS011;31254;51.680;5.394;2024-02-16T01:02:58;4.45;;;2.75;;
45522;SDS011;31254;51.680;5.394;2024-02-16T01:05:24;5.88;;;2.58;;
45522;SDS011;31254;51.680;5.394;2024-02-16T01:07:51;4.45;;;2.38;;
45522;SDS011;31254;51.680;5.394;2024-02-16T01:10:18;4.30;;;2.50;;
45522;SDS011;31254;51.680;5.394;2024-02-16T01:12:45;4.70;;;2.30;;
45522;SDS011;31254;51.680;5.394;2024-02-16T01:15:11;3.28;;;2.33;;
45522;SDS011;31254;51.680;5.394;2024-02-16T01:17:38;4.80;;;2.55;;
45522;SDS011;31254;51.680;5.394;2024-02-16T01:20:06;5.85;;;3.00;;
45522;SDS011;31254;51.680;5.394;2024-02-16T01:22:37;4.32;;;2.35;;
45522;SDS011;31254;51.680;5.394;2024-02-16T01:25:04;4.63;;;2.60;;
45522;SDS011;31254;51.680;5.394;2024-02-16T01:27:31;5.63;;;2.78;;
45522;SDS011;31254;51.680;5.394;2024-02-16T01:29:58;5.78;;;2.90;;
45522;SDS011;31254;51.680;5.394;2024-02-16T01:32:26;3.05;;;2.13;;
45522;SDS011;31254;51.680;5.394;2024-02-16T01:34:53;4.75;;;2.40;;
45522;SDS011;31254;51.680;5.394;2024-02-16T01:37:19;4.22;;;2.40;;
45522;SDS011;31254;51.680;5.394;2024-02-16T01:39:46;6.43;;;2.90;;
45522;SDS011;31254;51.680;5.394;2024-02-16T01:42:12;4.80;;;2.50;;
45522;SDS011;31254;51.680;5.394;2024-02-16T01:44:39;5.85;;;2.67;;
45522;SDS011;31254;51.680;5.394;2024-02-16T01:47:06;4.25;;;2.50;;
45522;SDS011;31254;51.680;5.394;2024-02-16T01:49:33;5.82;;;2.72;;
45522;SDS011;31254;51.680;5.394;2024-02-16T01:52:00;4.00;;;2.47;;
45522;SDS011;31254;51.680;5.394;2024-02-16T01:54:26;4.13;;;2.83;;
45522;SDS011;31254;51.680;5.394;2024-02-16T01:56:53;5.95;;;2.95;;
45522;SDS011;31254;51.680;5.394;2024-02-16T01:59:21;5.22;;;2.33;;
45522;SDS011;31254;51.680;5.394;2024-02-16T02:01:49;4.70;;;2.70;;
45522;SDS011;31254;51.680;5.394;2024-02-16T02:04:15;4.97;;;2.80;;
45522;SDS011;31254;51.680;5.394;2024-02-16T02:06:42;6.07;;;3.10;;
45522;SDS011;31254;51.680;5.394;2024-02-16T02:09:09;4.60;;;2.70;;
45522;SDS011;31254;51.680;5.394;2024-02-16T02:11:36;7.30;;;2.70;;
45522;SDS011;31254;51.680;5.394;2024-02-16T02:14:04;7.07;;;3.22;;
45522;SDS011;31254;51.680;5.394;2024-02-16T02:16:30;6.38;;;2.92;;
45522;SDS011;31254;51.680;5.394;2024-02-16T02:19:10;4.50;;;2.85;;
45522;SDS011;31254;51.680;5.394;2024-02-16T02:21:36;5.63;;;2.95;;
45522;SDS011;31254;51.680;5.394;2024-02-16T02:24:03;7.00;;;3.13;;
45522;SDS011;31254;51.680;5.394;2024-02-16T02:26:30;5.22;;;3.08;;
45522;SDS011;31254;51.680;5.394;2024-02-16T02:28:57;5.00;;;3.42;;
45522;SDS011;31254;51.680;5.394;2024-02-16T02:31:23;4.50;;;2.58;;
45522;SDS011;31254;51.680;5.394;2024-02-16T02:33:50;5.03;;;3.08;;
45522;SDS011;31254;51.680;5.394;2024-02-16T02:36:16;4.68;;;2.97;;
45522;SDS011;31254;51.680;5.394;2024-02-16T02:38:43;4.53;;;2.70;;
45522;SDS011;31254;51.680;5.394;2024-02-16T02:41:10;4.45;;;2.88;;
45522;SDS011;31254;51.680;5.394;2024-02-16T02:43:37;5.10;;;3.30;;
45522;SDS011;31254;51.680;5.394;2024-02-16T02:46:03;5.93;;;2.60;;
45522;SDS011;31254;51.680;5.394;2024-02-16T02:48:30;5.03;;;3.10;;
45522;SDS011;31254;51.680;5.394;2024-02-16T02:50:57;7.28;;;2.67;;
45522;SDS011;31254;51.680;5.394;2024-02-16T02:53:27;6.25;;;3.00;;
45522;SDS011;31254;51.680;5.394;2024-02-16T02:55:54;4.75;;;2.90;;
45522;SDS011;31254;51.680;5.394;2024-02-16T02:58:20;6.13;;;2.97;;
45522;SDS011;31254;51.680;5.394;2024-02-16T03:00:47;7.80;;;3.20;;
45522;SDS011;31254;51.680;5.394;2024-02-16T03:03:13;6.03;;;3.13;;
45522;SDS011;31254;51.680;5.394;2024-02-16T03:05:41;6.55;;;3.30;;
45522;SDS011;31254;51.680;5.394;2024-02-16T03:08:08;5.40;;;3.08;;
45522;SDS011;31254;51.680;5.394;2024-02-16T03:10:37;6.82;;;3.30;;
45522;SDS011;31254;51.680;5.394;2024-02-16T03:13:05;5.50;;;2.83;;
45522;SDS011;31254;51.680;5.394;2024-02-16T03:15:33;5.25;;;3.00;;
45522;SDS011;31254;51.680;5.394;2024-02-16T03:18:02;4.55;;;2.95;;
45522;SDS011;31254;51.680;5.394;2024-02-16T03:20:29;4.63;;;3.08;;
45522;SDS011;31254;51.680;5.394;2024-02-16T03:22:56;5.03;;;2.60;;
45522;SDS011;31254;51.680;5.394;2024-02-16T03:25:22;4.60;;;2.95;;
45522;SDS011;31254;51.680;5.394;2024-02-16T03:27:50;6.70;;;2.92;;
45522;SDS011;31254;51.680;5.394;2024-02-16T03:30:16;5.57;;;3.10;;
45522;SDS011;31254;51.680;5.394;2024-02-16T03:32:47;5.18;;;2.78;;
45522;SDS011;31254;51.680;5.394;2024-02-16T03:35:17;5.10;;;2.80;;
45522;SDS011;31254;51.680;5.394;2024-02-16T03:37:44;4.13;;;2.70;;
45522;SDS011;31254;51.680;5.394;2024-02-16T03:40:11;4.63;;;3.03;;
45522;SDS011;31254;51.680;5.394;2024-02-16T03:42:39;5.93;;;2.80;;
45522;SDS011;31254;51.680;5.394;2024-02-16T03:45:07;4.40;;;2.90;;
45522;SDS011;31254;51.680;5.394;2024-02-16T03:47:34;4.53;;;2.75;;
45522;SDS011;31254;51.680;5.394;2024-02-16T03:50:01;5.50;;;2.83;;
45522;SDS011;31254;51.680;5.394;2024-02-16T03:52:28;10.50;;;3.42;;
45522;SDS011;31254;51.680;5.394;2024-02-16T03:54:55;6.05;;;3.28;;
45522;SDS011;31254;51.680;5.394;2024-02-16T03:57:21;5.40;;;3.13;;
45522;SDS011;31254;51.680;5.394;2024-02-16T03:59:48;6.63;;;3.08;;
45522;SDS011;31254;51.680;5.394;2024-02-16T04:02:15;4.60;;;3.00;;
45522;SDS011;31254;51.680;5.394;2024-02-16T04:04:41;6.03;;;3.13;;
45522;SDS011;31254;51.680;5.394;2024-02-16T04:07:08;4.47;;;2.85;;
45522;SDS011;31254;51.680;5.394;2024-02-16T04:09:35;6.25;;;3.15;;
45522;SDS011;31254;51.680;5.394;2024-02-16T04:12:01;4.55;;;2.90;;
45522;SDS011;31254;51.680;5.394;2024-02-16T04:14:30;4.88;;;2.90;;
45522;SDS011;31254;51.680;5.394;2024-02-16T04:16:57;3.70;;;2.80;;
45522;SDS011;31254;51.680;5.394;2024-02-16T04:19:26;5.20;;;2.90;;
45522;SDS011;31254;51.680;5.394;2024-02-16T04:21:53;4.07;;;2.67;;
45522;SDS011;31254;51.680;5.394;2024-02-16T04:24:23;4.22;;;2.70;;
45522;SDS011;31254;51.680;5.394;2024-02-16T04:26:50;5.18;;;3.08;;
45522;SDS011;31254;51.680;5.394;2024-02-16T04:29:16;6.57;;;2.75;;
45522;SDS011;31254;51.680;5.394;2024-02-16T04:31:43;4.50;;;2.83;;
45522;SDS011;31254;51.680;5.394;2024-02-16T04:34:11;5.60;;;2.97;;
45522;SDS011;31254;51.680;5.394;2024-02-16T04:36:39;4.72;;;2.72;;
45522;SDS011;31254;51.680;5.394;2024-02-16T04:39:05;5.00;;;2.83;;
45522;SDS011;31254;51.680;5.394;2024-02-16T04:41:32;5.03;;;2.80;;
45522;SDS011;31254;51.680;5.394;2024-02-16T04:43:58;6.57;;;3.42;;
45522;SDS011;31254;51.680;5.394;2024-02-16T04:46:25;4.22;;;3.10;;
45522;SDS011;31254;51.680;5.394;2024-02-16T04:48:53;7.90;;;3.33;;
45522;SDS011;31254;51.680;5.394;2024-02-16T04:51:19;5.18;;;2.72;;
45522;SDS011;31254;51.680;5.394;2024-02-16T04:53:46;4.38;;;2.83;;
45522;SDS011;31254;51.680;5.394;2024-02-16T04:56:12;4.20;;;2.97;;
45522;SDS011;31254;51.680;5.394;2024-02-16T04:58:42;5.80;;;3.17;;
45522;SDS011;31254;51.680;5.394;2024-02-16T05:01:09;5.88;;;3.10;;
45522;SDS011;31254;51.680;5.394;2024-02-16T05:03:36;5.18;;;2.60;;
45522;SDS011;31254;51.680;5.394;2024-02-16T05:06:03;5.97;;;3.13;;
45522;SDS011;31254;51.680;5.394;2024-02-16T05:08:30;4.47;;;3.05;;
45522;SDS011;31254;51.680;5.394;2024-02-16T05:10:57;4.82;;;2.53;;
45522;SDS011;31254;51.680;5.394;2024-02-16T05:13:23;5.13;;;2.70;;
45522;SDS011;31254;51.680;5.394;2024-02-16T05:15:52;5.57;;;2.78;;
45522;SDS011;31254;51.680;5.394;2024-02-16T05:18:21;5.35;;;3.03;;
45522;SDS011;31254;51.680;5.394;2024-02-16T05:20:48;4.43;;;2.67;;
45522;SDS011;31254;51.680;5.394;2024-02-16T05:23:15;4.95;;;3.03;;
45522;SDS011;31254;51.680;5.394;2024-02-16T05:25:42;5.03;;;2.80;;
45522;SDS011;31254;51.680;5.394;2024-02-16T05:28:08;5.38;;;3.10;;
45522;SDS011;31254;51.680;5.394;2024-02-16T05:30:35;3.83;;;2.55;;
45522;SDS011;31254;51.680;5.394;2024-02-16T05:33:02;7.07;;;2.78;;
45522;SDS011;31254;51.680;5.394;2024-02-16T05:35:29;4.72;;;2.75;;
45522;SDS011;31254;51.680;5.394;2024-02-16T05:38:00;5.65;;;2.80;;
45522;SDS011;31254;51.680;5.394;2024-02-16T05:40:33;6.43;;;2.97;;
45522;SDS011;31254;51.680;5.394;2024-02-16T05:43:11;5.57;;;3.20;;
45522;SDS011;31254;51.680;5.394;2024-02-16T05:45:38;5.53;;;2.90;;
45522;SDS011;31254;51.680;5.394;2024-02-16T05:48:08;5.43;;;3.50;;
45522;SDS011;31254;51.680;5.394;2024-02-16T05:50:37;3.65;;;2.47;;
45522;SDS011;31254;51.680;5.394;2024-02-16T05:53:03;4.35;;;2.60;;
45522;SDS011;31254;51.680;5.394;2024-02-16T05:55:30;7.32;;;2.55;;
45522;SDS011;31254;51.680;5.394;2024-02-16T05:57:57;3.65;;;2.38;;
45522;SDS011;31254;51.680;5.394;2024-02-16T06:00:23;4.28;;;2.60;;
45522;SDS011;31254;51.680;5.394;2024-02-16T06:02:50;4.93;;;2.60;;
45522;SDS011;31254;51.680;5.394;2024-02-16T06:05:17;4.55;;;2.70;;
45522;SDS011;31254;51.680;5.394;2024-02-16T06:07:43;4.53;;;3.13;;
45522;SDS011;31254;51.680;5.394;2024-02-16T06:10:10;5.30;;;3.05;;
45522;SDS011;31254;51.680;5.394;2024-02-16T06:12:38;4.95;;;2.70;;
45522;SDS011;31254;51.680;5.394;2024-02-16T06:15:05;5.22;;;2.90;;
45522;SDS011;31254;51.680;5.394;2024-02-16T06:17:32;5.18;;;2.70;;
45522;SDS011;31254;51.680;5.394;2024-02-16T06:19:59;5.82;;;2.97;;
45522;SDS011;31254;51.680;5.394;2024-02-16T06:22:27;4.28;;;2.90;;
45522;SDS011;31254;51.680;5.394;2024-02-16T06:24:53;2.78;;;2.25;;
45522;SDS011;31254;51.680;5.394;2024-02-16T06:27:20;4.75;;;2.80;;
45522;SDS011;31254;51.680;5.394;2024-02-16T06:29:47;4.97;;;2.60;;
45522;SDS011;31254;51.680;5.394;2024-02-16T06:32:14;4.75;;;2.88;;
45522;SDS011;31254;51.680;5.394;2024-02-16T06:34:43;5.88;;;2.88;;
45522;SDS011;31254;51.680;5.394;2024-02-16T06:37:12;5.60;;;2.95;;
45522;SDS011;31254;51.680;5.394;2024-02-16T06:39:38;3.60;;;2.60;;
45522;SDS011;31254;51.680;5.394;2024-02-16T06:42:06;6.22;;;2.70;;
45522;SDS011;31254;51.680;5.394;2024-02-16T06:44:32;5.75;;;2.80;;
45522;SDS011;31254;51.680;5.394;2024-02-16T06:46:59;4.78;;;2.45;;
45522;SDS011;31254;51.680;5.394;2024-02-16T06:49:26;3.92;;;2.70;;
45522;SDS011;31254;51.680;5.394;2024-02-16T06:51:53;5.47;;;2.65;;
45522;SDS011;31254;51.680;5.394;2024-02-16T06:54:20;5.75;;;2.88;;
45522;SDS011;31254;51.680;5.394;2024-02-16T06:56:47;4.65;;;2.63;;
45522;SDS011;31254;51.680;5.394;2024-02-16T06:59:14;4.53;;;2.60;;
45522;SDS011;31254;51.680;5.394;2024-02-16T07:01:40;4.60;;;2.80;;
45522;SDS011;31254;51.680;5.394;2024-02-16T07:04:07;5.28;;;2.78;;
45522;SDS011;31254;51.680;5.394;2024-02-16T07:06:35;6.72;;;2.92;;
45522;SDS011;31254;51.680;5.394;2024-02-16T07:09:05;4.10;;;2.70;;
45522;SDS011;31254;51.680;5.394;2024-02-16T07:11:31;5.53;;;2.90;;
45522;SDS011;31254;51.680;5.394;2024-02-16T07:13:58;4.75;;;2.63;;
45522;SDS011;31254;51.680;5.394;2024-02-16T07:16:28;4.82;;;2.88;;
45522;SDS011;31254;51.680;5.394;2024-02-16T07:18:54;4.60;;;2.47;;
45522;SDS011;31254;51.680;5.394;2024-02-16T07:21:21;6.05;;;2.80;;
45522;SDS011;31254;51.680;5.394;2024-02-16T07:23:49;5.68;;;2.65;;
45522;SDS011;31254;51.680;5.394;2024-02-16T07:26:17;4.40;;;2.55;;
45522;SDS011;31254;51.680;5.394;2024-02-16T07:28:44;8.32;;;2.95;;
45522;SDS011;31254;51.680;5.394;2024-02-16T07:31:12;5.95;;;3.17;;
45522;SDS011;31254;51.680;5.394;2024-02-16T07:33:40;8.30;;;3.25;;
45522;SDS011;31254;51.680;5.394;2024-02-16T07:36:07;5.13;;;3.00;;
45522;SDS011;31254;51.680;5.394;2024-02-16T07:38:35;5.82;;;3.15;;
45522;SDS011;31254;51.680;5.394;2024-02-16T07:41:01;5.72;;;2.97;;
45522;SDS011;31254;51.680;5.394;2024-02-16T07:43:32;7.38;;;3.30;;
45522;SDS011;31254;51.680;5.394;2024-02-16T07:45:59;4.38;;;2.90;;
45522;SDS011;31254;51.680;5.394;2024-02-16T07:48:25;6.88;;;3.20;;
45522;SDS011;31254;51.680;5.394;2024-02-16T07:50:52;5.70;;;3.38;;
45522;SDS011;31254;51.680;5.394;2024-02-16T07:53:19;7.55;;;3.58;;
45522;SDS011;31254;51.680;5.394;2024-02-16T07:55:46;8.32;;;3.53;;
45522;SDS011;31254;51.680;5.394;2024-02-16T07:58:12;4.97;;;3.40;;
45522;SDS011;31254;51.680;5.394;2024-02-16T08:00:39;5.93;;;3.33;;
45522;SDS011;31254;51.680;5.394;2024-02-16T08:03:06;7.95;;;3.53;;
45522;SDS011;31254;51.680;5.394;2024-02-16T08:05:33;7.82;;;3.63;;
45522;SDS011;31254;51.680;5.394;2024-02-16T08:07:59;7.38;;;3.75;;
45522;SDS011;31254;51.680;5.394;2024-02-16T08:10:26;8.95;;;3.58;;
45522;SDS011;31254;51.680;5.394;2024-02-16T08:12:52;13.07;;;3.63;;
45522;SDS011;31254;51.680;5.394;2024-02-16T08:15:19;8.07;;;4.07;;
45522;SDS011;31254;51.680;5.394;2024-02-16T08:17:52;6.88;;;3.42;;
45522;SDS011;31254;51.680;5.394;2024-02-16T08:20:19;6.75;;;3.85;;
45522;SDS011;31254;51.680;5.394;2024-02-16T08:22:47;13.00;;;4.63;;
45522;SDS011;31254;51.680;5.394;2024-02-16T08:25:13;7.25;;;3.30;;
45522;SDS011;31254;51.680;5.394;2024-02-16T08:27:40;8.23;;;4.03;;
45522;SDS011;31254;51.680;5.394;2024-02-16T08:30:07;6.72;;;3.47;;
45522;SDS011;31254;51.680;5.394;2024-02-16T08:32:35;6.40;;;3.55;;
45522;SDS011;31254;51.680;5.394;2024-02-16T08:35:03;8.48;;;3.67;;
45522;SDS011;31254;51.680;5.394;2024-02-16T08:37:30;7.55;;;3.50;;
45522;SDS011;31254;51.680;5.394;2024-02-16T08:39:57;7.78;;;4.28;;
45522;SDS011;31254;51.680;5.394;2024-02-16T08:42:24;9.45;;;3.80;;
45522;SDS011;31254;51.680;5.394;2024-02-16T08:44:50;10.07;;;3.25;;
45522;SDS011;31254;51.680;5.394;2024-02-16T08:47:17;8.88;;;3.30;;
45522;SDS011;31254;51.680;5.394;2024-02-16T08:49:44;8.23;;;3.60;;
45522;SDS011;31254;51.680;5.394;2024-02-16T08:52:11;4.78;;;3.20;;
45522;SDS011;31254;51.680;5.394;2024-02-16T08:54:38;5.47;;;3.60;;
45522;SDS011;31254;51.680;5.394;2024-02-16T08:57:05;10.50;;;3.70;;
45522;SDS011;31254;51.680;5.394;2024-02-16T08:59:32;6.72;;;3.63;;
45522;SDS011;31254;51.680;5.394;2024-02-16T09:02:00;6.75;;;3.28;;
45522;SDS011;31254;51.680;5.394;2024-02-16T09:04:27;8.05;;;3.47;;
45522;SDS011;31254;51.680;5.394;2024-02-16T09:06:54;7.40;;;4.07;;
45522;SDS011;31254;51.680;5.394;2024-02-16T09:09:20;7.97;;;3.75;;
45522;SDS011;31254;51.680;5.394;2024-02-16T09:11:47;13.82;;;4.35;;
45522;SDS011;31254;51.680;5.394;2024-02-16T09:14:13;9.88;;;4.30;;
45522;SDS011;31254;51.680;5.394;2024-02-16T09:16:40;11.10;;;4.22;;
45522;SDS011;31254;51.680;5.394;2024-02-16T09:19:07;7.85;;;4.30;;
45522;SDS011;31254;51.680;5.394;2024-02-16T09:21:34;11.90;;;4.28;;
45522;SDS011;31254;51.680;5.394;2024-02-16T09:24:01;12.13;;;4.22;;
45522;SDS011;31254;51.680;5.394;2024-02-16T09:26:28;10.75;;;4.93;;
45522;SDS011;31254;51.680;5.394;2024-02-16T09:29:00;8.02;;;4.22;;
45522;SDS011;31254;51.680;5.394;2024-02-16T09:31:26;7.13;;;4.05;;
45522;SDS011;31254;51.680;5.394;2024-02-16T09:33:53;9.48;;;4.47;;
45522;SDS011;31254;51.680;5.394;2024-02-16T09:36:20;13.50;;;4.72;;
45522;SDS011;31254;51.680;5.394;2024-02-16T09:38:47;8.40;;;4.05;;
45522;SDS011;31254;51.680;5.394;2024-02-16T09:41:14;13.35;;;4.13;;
45522;SDS011;31254;51.680;5.394;2024-02-16T09:43:42;11.60;;;4.63;;
45522;SDS011;31254;51.680;5.394;2024-02-16T09:46:09;10.25;;;4.38;;
45522;SDS011;31254;51.680;5.394;2024-02-16T09:48:36;8.05;;;4.35;;
45522;SDS011;31254;51.680;5.394;2024-02-16T09:51:08;9.88;;;4.35;;
45522;SDS011;31254;51.680;5.394;2024-02-16T09:53:35;9.88;;;4.82;;
45522;SDS011;31254;51.680;5.394;2024-02-16T09:56:01;10.43;;;4.50;;
45522;SDS011;31254;51.680;5.394;2024-02-16T09:58:31;8.05;;;4.30;;
45522;SDS011;31254;51.680;5.394;2024-02-16T10:00:58;10.05;;;5.10;;
45522;SDS011;31254;51.680;5.394;2024-02-16T10:03:26;8.77;;;4.50;;
45522;SDS011;31254;51.680;5.394;2024-02-16T10:06:07;7.35;;;4.32;;
45522;SDS011;31254;51.680;5.394;2024-02-16T10:08:53;9.65;;;4.28;;
45522;SDS011;31254;51.680;5.394;2024-02-16T10:11:21;10.30;;;4.55;;
45522;SDS011;31254;51.680;5.394;2024-02-16T10:13:57;11.43;;;4.65;;
45522;SDS011;31254;51.680;5.394;2024-02-16T10:16:25;10.77;;;5.20;;
45522;SDS011;31254;51.680;5.394;2024-02-16T10:18:54;12.23;;;4.25;;
45522;SDS011;31254;51.680;5.394;2024-02-16T10:23:59;10.02;;;4.90;;
45522;SDS011;31254;51.680;5.394;2024-02-16T10:26:31;12.32;;;4.57;;
45522;SDS011;31254;51.680;5.394;2024-02-16T10:28:58;9.63;;;4.68;;
45522;SDS011;31254;51.680;5.394;2024-02-16T10:31:25;7.43;;;4.57;;
45522;SDS011;31254;51.680;5.394;2024-02-16T10:33:58;7.78;;;5.18;;
45522;SDS011;31254;51.680;5.394;2024-02-16T10:36:26;9.40;;;4.40;;
45522;SDS011;31254;51.680;5.394;2024-02-16T10:38:55;9.23;;;4.50;;
45522;SDS011;31254;51.680;5.394;2024-02-16T10:41:28;8.27;;;4.75;;
45522;SDS011;31254;51.680;5.394;2024-02-16T10:43:55;10.52;;;4.50;;
45522;SDS011;31254;51.680;5.394;2024-02-16T10:46:23;9.13;;;4.68;;
45522;SDS011;31254;51.680;5.394;2024-02-16T10:48:52;8.93;;;4.65;;
45522;SDS011;31254;51.680;5.394;2024-02-16T10:51:21;7.57;;;4.20;;
45522;SDS011;31254;51.680;5.394;2024-02-16T10:53:53;8.93;;;4.55;;
45522;SDS011;31254;51.680;5.394;2024-02-16T10:56:32;6.93;;;4.30;;
45522;SDS011;31254;51.680;5.394;2024-02-16T10:59:00;8.85;;;4.80;;
45522;SDS011;31254;51.680;5.394;2024-02-16T11:01:31;8.73;;;4.38;;
45522;SDS011;31254;51.680;5.394;2024-02-16T11:04:05;10.10;;;5.07;;
45522;SDS011;31254;51.680;5.394;2024-02-16T11:06:49;11.63;;;4.72;;
45522;SDS011;31254;51.680;5.394;2024-02-16T11:09:23;9.90;;;4.57;;
45522;SDS011;31254;51.680;5.394;2024-02-16T11:11:52;8.27;;;4.68;;
45522;SDS011;31254;51.680;5.394;2024-02-16T11:14:20;8.70;;;5.20;;
45522;SDS011;31254;51.680;5.394;2024-02-16T11:16:48;9.55;;;6.00;;
45522;SDS011;31254;51.680;5.394;2024-02-16T11:19:16;13.57;;;5.40;;
45522;SDS011;31254;51.680;5.394;2024-02-16T11:21:56;10.65;;;5.90;;
45522;SDS011;31254;51.680;5.394;2024-02-16T11:24:31;10.18;;;5.63;;
45522;SDS011;31254;51.680;5.394;2024-02-16T11:27:01;11.15;;;5.32;;
45522;SDS011;31254;51.680;5.394;2024-02-16T11:29:35;8.93;;;5.20;;
45522;SDS011;31254;51.680;5.394;2024-02-16T11:32:02;9.77;;;5.65;;
45522;SDS011;31254;51.680;5.394;2024-02-16T11:34:30;9.37;;;6.33;;
45522;SDS011;31254;51.680;5.394;2024-02-16T11:36:57;10.85;;;6.30;;
45522;SDS011;31254;51.680;5.394;2024-02-16T11:39:26;10.30;;;6.00;;
45522;SDS011;31254;51.680;5.394;2024-02-16T11:42:03;11.93;;;6.22;;
45522;SDS011;31254;51.680;5.394;2024-02-16T11:44:31;11.07;;;6.00;;
45522;SDS011;31254;51.680;5.394;2024-02-16T11:46:59;11.68;;;6.53;;
45522;SDS011;31254;51.680;5.394;2024-02-16T11:49:30;12.07;;;6.40;;
45522;SDS011;31254;51.680;5.394;2024-02-16T11:51:59;8.73;;;6.00;;
45522;SDS011;31254;51.680;5.394;2024-02-16T11:54:26;9.55;;;5.60;;
45522;SDS011;31254;51.680;5.394;2024-02-16T11:56:53;12.60;;;6.85;;
45522;SDS011;31254;51.680;5.394;2024-02-16T11:59:20;8.07;;;5.85;;
45522;SDS011;31254;51.680;5.394;2024-02-16T12:04:24;7.80;;;5.63;;
45522;SDS011;31254;51.680;5.394;2024-02-16T12:06:55;9.38;;;5.85;;
45522;SDS011;31254;51.680;5.394;2024-02-16T12:09:28;9.65;;;6.28;;
45522;SDS011;31254;51.680;5.394;2024-02-16T12:11:58;9.60;;;5.63;;
45522;SDS011;31254;51.680;5.394;2024-02-16T12:14:24;9.95;;;5.75;;
45522;SDS011;31254;51.680;5.394;2024-02-16T12:16:52;8.43;;;6.30;;
45522;SDS011;31254;51.680;5.394;2024-02-16T12:19:22;9.25;;;5.32;;
45522;SDS011;31254;51.680;5.394;2024-02-16T12:21:54;8.50;;;5.55;;
45522;SDS011;31254;51.680;5.394;2024-02-16T12:24:23;8.70;;;5.45;;
45522;SDS011;31254;51.680;5.394;2024-02-16T12:26:50;10.98;;;7.47;;
45522;SDS011;31254;51.680;5.394;2024-02-16T12:29:17;10.40;;;6.25;;
45522;SDS011;31254;51.680;5.394;2024-02-16T12:31:44;8.27;;;6.05;;
45522;SDS011;31254;51.680;5.394;2024-02-16T12:34:11;7.55;;;5.60;;
45522;SDS011;31254;51.680;5.394;2024-02-16T12:36:39;11.65;;;6.00;;
45522;SDS011;31254;51.680;5.394;2024-02-16T12:39:13;7.70;;;5.43;;
45522;SDS011;31254;51.680;5.394;2024-02-16T12:41:42;9.27;;;5.75;;
45522;SDS011;31254;51.680;5.394;2024-02-16T12:44:10;13.20;;;6.20;;
45522;SDS011;31254;51.680;5.394;2024-02-16T12:46:37;9.18;;;5.88;;
45522;SDS011;31254;51.680;5.394;2024-02-16T12:49:05;8.98;;;6.28;;
45522;SDS011;31254;51.680;5.394;2024-02-16T12:51:32;7.97;;;6.07;;
45522;SDS011;31254;51.680;5.394;2024-02-16T12:54:00;9.43;;;5.50;;
45522;SDS011;31254;51.680;5.394;2024-02-16T12:56:30;8.65;;;5.88;;
45522;SDS011;31254;51.680;5.394;2024-02-16T12:58:56;9.10;;;5.85;;
45522;SDS011;31254;51.680;5.394;2024-02-16T13:01:26;8.38;;;5.90;;
45522;SDS011;31254;51.680;5.394;2024-02-16T13:03:53;8.45;;;5.25;;
45522;SDS011;31254;51.680;5.394;2024-02-16T13:06:19;7.88;;;5.78;;
45522;SDS011;31254;51.680;5.394;2024-02-16T13:08:52;7.82;;;6.05;;
45522;SDS011;31254;51.680;5.394;2024-02-16T13:11:20;9.55;;;6.00;;
45522;SDS011;31254;51.680;5.394;2024-02-16T13:13:46;7.68;;;5.70;;
45522;SDS011;31254;51.680;5.394;2024-02-16T13:16:13;10.35;;;5.90;;
45522;SDS011;31254;51.680;5.394;2024-02-16T13:18:40;8.32;;;5.97;;
45522;SDS011;31254;51.680;5.394;2024-02-16T13:21:07;8.60;;;6.13;;
45522;SDS011;31254;51.680;5.394;2024-02-16T13:23:34;8.73;;;5.43;;
45522;SDS011;31254;51.680;5.394;2024-02-16T13:26:00;7.38;;;5.63;;
45522;SDS011;31254;51.680;5.394;2024-02-16T13:28:27;8.70;;;6.05;;
45522;SDS011;31254;51.680;5.394;2024-02-16T13:30:54;7.88;;;5.70;;
45522;SDS011;31254;51.680;5.394;2024-02-16T13:33:21;7.82;;;6.00;;
45522;SDS011;31254;51.680;5.394;2024-02-16T13:35:47;9.40;;;6.28;;
45522;SDS011;31254;51.680;5.394;2024-02-16T13:38:14;8.20;;;6.10;;
45522;SDS011;31254;51.680;5.394;2024-02-16T13:40:41;8.55;;;5.95;;
45522;SDS011;31254;51.680;5.394;2024-02-16T13:43:09;9.70;;;6.57;;
45522;SDS011;31254;51.680;5.394;2024-02-16T13:48:19;8.35;;;5.78;;
45522;SDS011;31254;51.680;5.394;2024-02-16T13:50:47;9.35;;;6.63;;
45522;SDS011;31254;51.680;5.394;2024-02-16T13:53:14;9.07;;;5.85;;
45522;SDS011;31254;51.680;5.394;2024-02-16T13:55:46;10.35;;;6.40;;
45522;SDS011;31254;51.680;5.394;2024-02-16T13:58:12;9.90;;;6.68;;
45522;SDS011;31254;51.680;5.394;2024-02-16T14:00:39;8.38;;;6.50;;
45522;SDS011;31254;51.680;5.394;2024-02-16T14:03:06;9.88;;;6.82;;
45522;SDS011;31254;51.680;5.394;2024-02-16T14:05:36;9.18;;;6.55;;
45522;SDS011;31254;51.680;5.394;2024-02-16T14:08:04;9.20;;;6.18;;
45522;SDS011;31254;51.680;5.394;2024-02-16T14:10:34;12.63;;;6.93;;
45522;SDS011;31254;51.680;5.394;2024-02-16T14:13:02;8.35;;;6.25;;
45522;SDS011;31254;51.680;5.394;2024-02-16T14:15:29;8.77;;;6.38;;
45522;SDS011;31254;51.680;5.394;2024-02-16T14:17:58;8.75;;;6.25;;
45522;SDS011;31254;51.680;5.394;2024-02-16T14:20:34;11.00;;;6.53;;
45522;SDS011;31254;51.680;5.394;2024-02-16T14:23:01;7.82;;;5.80;;
45522;SDS011;31254;51.680;5.394;2024-02-16T14:25:33;9.10;;;6.18;;
45522;SDS011;31254;51.680;5.394;2024-02-16T14:28:01;10.07;;;6.20;;
45522;SDS011;31254;51.680;5.394;2024-02-16T14:30:29;8.90;;;6.40;;
45522;SDS011;31254;51.680;5.394;2024-02-16T14:32:58;9.57;;;6.07;;
45522;SDS011;31254;51.680;5.394;2024-02-16T14:35:26;7.82;;;5.90;;
45522;SDS011;31254;51.680;5.394;2024-02-16T14:37:52;7.47;;;5.60;;
45522;SDS011;31254;51.680;5.394;2024-02-16T14:40:19;8.40;;;6.47;;
45522;SDS011;31254;51.680;5.394;2024-02-16T14:42:45;9.50;;;6.25;;
45522;SDS011;31254;51.680;5.394;2024-02-16T14:45:12;9.07;;;6.20;;
45522;SDS011;31254;51.680;5.394;2024-02-16T14:47:49;11.45;;;5.82;;
45522;SDS011;31254;51.680;5.394;2024-02-16T14:50:16;7.97;;;6.15;;
45522;SDS011;31254;51.680;5.394;2024-02-16T14:52:44;8.93;;;5.75;;
45522;SDS011;31254;51.680;5.394;2024-02-16T14:55:12;7.63;;;6.22;;
45522;SDS011;31254;51.680;5.394;2024-02-16T14:57:40;7.60;;;6.40;;